createdAt,value
2023-03-21T00:03:07.389Z,9.5
2023-03-21T00:33:21.664Z,9.7
2023-03-21T00:43:08.972Z,9.8
2023-03-21T00:53:09.533Z,9.8
2023-03-21T01:13:10.585Z,9.9
2023-03-21T01:33:12.361Z,10
2023-03-21T02:03:19.011Z,9.8
2023-03-21T02:23:14.684Z,9.7
2023-03-21T02:33:15.311Z,9.6
2023-03-21T02:43:22.841Z,9.6
2023-03-21T02:53:16.256Z,9.6
2023-03-21T03:03:24.944Z,9.6
2023-03-21T03:13:17.977Z,9.6
2023-03-21T03:23:18.846Z,9.4
2023-03-21T03:33:19.794Z,9.3
2023-03-21T03:43:19.955Z,9.3
2023-03-21T04:03:20.539Z,9.4
2023-03-21T04:13:21.085Z,9.3
2023-03-21T05:43:24.585Z,9.3
2023-03-21T05:53:25.488Z,9.3
2023-03-21T06:13:26.493Z,9.4
2023-03-21T06:16:04.941Z,9.4
2023-03-21T06:33:35.691Z,9.2
2023-03-21T06:53:37.198Z,9.1
2023-03-21T07:03:37.443Z,9.1
2023-03-21T07:13:37.729Z,9.1
2023-03-21T07:33:38.272Z,9.1
2023-03-21T07:43:39.254Z,9
2023-03-21T08:03:40.347Z,9.3
2023-03-21T08:13:40.397Z,9.4
2023-03-21T08:23:40.593Z,9.5
2023-03-21T08:33:50.142Z,9.8
2023-03-21T08:53:41.972Z,10.2
2023-03-21T09:53:45.625Z,10.4
2023-03-21T10:13:45.960Z,10.3
2023-03-21T10:43:48.269Z,10.9
2023-03-21T11:03:49.885Z,10.9
2023-03-21T11:13:50.684Z,10.9
2023-03-21T11:33:52.402Z,10.9
2023-03-21T11:53:53.109Z,11.5
2023-03-21T12:03:54.765Z,11.5
2023-03-21T12:43:55.624Z,12.3
2023-03-21T13:03:56.938Z,12.1
2023-03-21T13:13:57.454Z,12.1
2023-03-21T13:23:57.604Z,11.9
2023-03-21T13:43:58.520Z,11.7
2023-03-21T14:03:59.012Z,11.7
2023-03-21T14:13:59.552Z,11.7
2023-03-21T14:44:02.136Z,12
2023-03-21T15:04:02.900Z,12.2
2023-03-21T15:14:03.279Z,12.1
2023-03-21T15:44:04.406Z,12.7
2023-03-21T15:54:05.303Z,12.5
2023-03-21T16:14:07.735Z,13
2023-03-21T17:04:09.873Z,12.6
2023-03-21T17:54:11.715Z,12.3
2023-03-21T18:14:17.113Z,12.2
2023-03-21T18:44:17.555Z,11.7
2023-03-21T18:54:15.001Z,11.6
2023-03-21T19:04:23.715Z,11.7
2023-03-21T19:14:16.229Z,11.8
2023-03-21T19:24:26.802Z,11.7
2023-03-21T19:34:17.096Z,11.4
2023-03-21T19:54:18.399Z,10.9
2023-03-21T20:04:18.434Z,10.9
2023-03-21T20:14:18.640Z,11
2023-03-21T20:34:20.567Z,11.2
2023-03-21T20:54:21.618Z,11.3
2023-03-21T21:04:22.814Z,11.1
2023-03-21T21:34:23.383Z,10.7
2023-03-21T22:54:27.733Z,10.9
2023-03-21T23:24:29.820Z,11.5
2023-03-21T23:34:30.607Z,11.7
2023-03-21T23:54:31.318Z,11.6
